Station Historical Data
Daily Summary for June 14, 2017 Units:  English    Metric   Both
« Previous Day
Next Day »
Daily Weekly Monthly Yearly Custom
  High: Low: Average:
Temperature: 81.2 °F 59.3 °F 69.8 °F
Dew Point: 62.2 °F 38.7 °F 54.1 °F
Humidity: 92% 37% 61%
Wind Speed: 13.0mph 0.0mph 3.7mph
Wind Gust: 19.0mph - -
Wind- - ENE
Pressure: 30.08 in 29.96 in -
Precipitation: 0.00 in    
Historical Graphs
 
 
Tabular Data for June 14, 2017
Time Temperature Dew Point Pressure Wind Wind Speed Wind Gust Humidity Rainfall Rate (Hourly)
00:04 66.2 °F 62.2 °F 29.99 in NE 1.0 mph 3.0 mph 87% 0.00 in
00:09 66.2 °F 62.2 °F 29.99 in NE 1.0 mph 3.0 mph 87% 0.00 in
00:14 66.1 °F 62.1 °F 29.99 in NE 1.0 mph 4.0 mph 87% 0.00 in
00:19 66.0 °F 62.0 °F 29.99 in Calm   1.0 mph 87% 0.00 in
00:24 65.8 °F 61.8 °F 29.99 in Calm   5.0 mph 87% 0.00 in
00:29 65.7 °F 61.7 °F 29.99 in Calm   3.0 mph 87% 0.00 in
00:34 65.6 °F 61.6 °F 29.99 in Calm   4.0 mph 87% 0.00 in
00:39 65.5 °F 61.5 °F 30.00 in Calm   5.0 mph 87% 0.00 in
00:44 65.4 °F 61.4 °F 30.00 in ENE 3.0 mph 3.0 mph 87% 0.00 in
00:49 65.2 °F 61.2 °F 30.00 in Calm   3.0 mph 87% 0.00 in
00:54 65.1 °F 61.1 °F 30.00 in Calm   3.0 mph 87% 0.00 in
00:59 65.0 °F 61.4 °F 30.00 in Calm     88% 0.00 in
01:04 65.1 °F 61.5 °F 30.00 in NE 1.0 mph 3.0 mph 88% 0.00 in
01:09 64.9 °F 61.3 °F 30.00 in NE 2.0 mph 4.0 mph 88% 0.00 in
01:14 64.9 °F 61.3 °F 30.00 in NE 3.0 mph 4.0 mph 88% 0.00 in
01:19 64.8 °F 61.2 °F 29.99 in NE 2.0 mph 4.0 mph 88% 0.00 in
01:24 64.8 °F 61.2 °F 30.00 in NE 2.0 mph 4.0 mph 88% 0.00 in
01:29 64.5 °F 60.9 °F 30.00 in NE 1.0 mph 4.0 mph 88% 0.00 in
01:34 64.4 °F 60.8 °F 30.00 in NE 1.0 mph 3.0 mph 88% 0.00 in
01:39 64.3 °F 61.0 °F 30.00 in ENE 2.0 mph 5.0 mph 89% 0.00 in
01:44 64.2 °F 60.9 °F 30.00 in Calm   3.0 mph 89% 0.00 in
01:49 63.9 °F 60.3 °F 30.00 in Calm     88% 0.00 in
01:54 63.7 °F 60.4 °F 30.00 in Calm     89% 0.00 in
01:59 63.4 °F 60.1 °F 30.00 in Calm     89% 0.00 in
02:04 63.0 °F 59.7 °F 30.00 in Calm     89% 0.00 in
02:09 62.8 °F 59.8 °F 30.00 in Calm   2.0 mph 90% 0.00 in
02:14 63.0 °F 60.0 °F 30.00 in NE 1.0 mph 4.0 mph 90% 0.00 in
02:19 63.1 °F 60.1 °F 30.00 in Calm   3.0 mph 90% 0.00 in
02:24 63.1 °F 60.1 °F 30.00 in Calm     90% 0.00 in
02:29 62.8 °F 59.8 °F 30.00 in Calm     90% 0.00 in
02:34 62.7 °F 60.0 °F 30.00 in Calm     91% 0.00 in
02:39 62.7 °F 60.0 °F 30.00 in Calm     91% 0.00 in
02:44 62.7 °F 59.7 °F 29.99 in Calm     90% 0.00 in
02:49 62.7 °F 60.0 °F 29.99 in Calm     91% 0.00 in
02:54 62.7 °F 60.0 °F 29.99 in Calm     91% 0.00 in
02:59 62.5 °F 59.8 °F 29.99 in Calm     91% 0.00 in
03:04 62.4 °F 59.7 °F 29.99 in Calm     91% 0.00 in
03:09 62.4 °F 59.7 °F 29.99 in Calm     91% 0.00 in
03:14 62.4 °F 59.7 °F 29.99 in Calm     91% 0.00 in
03:19 62.3 °F 59.6 °F 29.99 in Calm     91% 0.00 in
03:24 62.0 °F 59.3 °F 29.99 in Calm     91% 0.00 in
03:29 61.8 °F 59.1 °F 30.00 in Calm     91% 0.00 in
03:34 61.7 °F 58.7 °F 30.00 in Calm     90% 0.00 in
03:39 61.5 °F 58.8 °F 30.00 in Calm     91% 0.00 in
03:44 61.3 °F 58.7 °F 30.00 in Calm     91% 0.00 in
03:49 61.0 °F 58.4 °F 30.00 in Calm     91% 0.00 in
03:54 60.9 °F 58.3 °F 30.00 in Calm     91% 0.00 in
03:59 60.7 °F 58.1 °F 30.01 in Calm     91% 0.00 in
04:04 60.3 °F 57.7 °F 30.01 in Calm     91% 0.00 in
04:09 60.2 °F 57.6 °F 30.01 in Calm     91% 0.00 in
04:14 60.2 °F 57.6 °F 30.01 in Calm     91% 0.00 in
04:19 60.2 °F 57.6 °F 30.00 in Calm     91% 0.00 in
04:24 60.0 °F 57.4 °F 30.01 in Calm     91% 0.00 in
04:29 60.0 °F 57.7 °F 30.00 in Calm     92% 0.00 in
04:34 59.9 °F 57.3 °F 30.01 in Calm     91% 0.00 in
04:39 59.9 °F 57.6 °F 30.01 in Calm     92% 0.00 in
04:44 59.8 °F 57.5 °F 30.01 in Calm     92% 0.00 in
04:49 60.0 °F 57.7 °F 30.01 in Calm     92% 0.00 in
04:54 59.9 °F 57.6 °F 30.01 in Calm     92% 0.00 in
04:59 59.4 °F 56.8 °F 30.02 in Calm     91% 0.00 in
05:04 59.3 °F 57.0 °F 30.02 in Calm     92% 0.00 in
05:09 59.3 °F 57.0 °F 30.02 in Calm     92% 0.00 in
05:14 59.6 °F 57.3 °F 30.02 in Calm     92% 0.00 in
05:19 59.7 °F 57.4 °F 30.02 in Calm     92% 0.00 in
05:24 59.8 °F 57.5 °F 30.02 in NE 2.0 mph 3.0 mph 92% 0.00 in
05:29 59.8 °F 57.5 °F 30.02 in NE 1.0 mph 3.0 mph 92% 0.00 in
05:34 59.6 °F 57.3 °F 30.03 in NE 1.0 mph 3.0 mph 92% 0.00 in
05:39 59.6 °F 57.3 °F 30.03 in Calm   2.0 mph 92% 0.00 in
05:44 59.5 °F 57.2 °F 30.04 in Calm   2.0 mph 92% 0.00 in
05:49 59.6 °F 57.3 °F 30.04 in Calm     92% 0.00 in
05:54 59.7 °F 57.4 °F 30.04 in Calm     92% 0.00 in
05:59 59.9 °F 57.6 °F 30.04 in ENE 2.0 mph 3.0 mph 92% 0.00 in
06:04 59.9 °F 57.6 °F 30.04 in ENE 1.0 mph 4.0 mph 92% 0.00 in
06:09 60.0 °F 57.4 °F 30.03 in ENE 1.0 mph 4.0 mph 91% 0.00 in
06:14 60.1 °F 57.5 °F 30.03 in ENE 1.0 mph 4.0 mph 91% 0.00 in
06:19 60.3 °F 57.7 °F 30.03 in ENE 1.0 mph 3.0 mph 91% 0.00 in
06:24 60.2 °F 57.3 °F 30.03 in Calm   2.0 mph 90% 0.00 in
06:29 60.3 °F 57.4 °F 30.04 in Calm   1.0 mph 90% 0.00 in
06:34 60.5 °F 57.6 °F 30.03 in ENE 1.0 mph 4.0 mph 90% 0.00 in
06:39 60.8 °F 57.5 °F 30.04 in ENE 1.0 mph 4.0 mph 89% 0.00 in
06:44 61.0 °F 57.7 °F 30.04 in Calm   1.0 mph 89% 0.00 in
06:49 61.4 °F 57.8 °F 30.05 in Calm     88% 0.00 in
06:54 61.6 °F 57.4 °F 30.05 in Calm     86% 0.00 in
06:59 61.9 °F 57.3 °F 30.05 in ENE 3.0 mph 5.0 mph 85% 0.00 in
07:04 62.2 °F 57.6 °F 30.06 in NNE 2.0 mph 5.0 mph 85% 0.00 in
07:09 62.0 °F 57.8 °F 30.06 in NE 2.0 mph 5.0 mph 86% 0.00 in
07:14 62.2 °F 58.0 °F 30.06 in NE 2.0 mph 6.0 mph 86% 0.00 in
07:19 62.2 °F 58.0 °F 30.06 in NE 3.0 mph 7.0 mph 86% 0.00 in
07:24 62.2 °F 58.0 °F 30.06 in NE 4.0 mph 9.0 mph 86% 0.00 in
07:29 62.4 °F 58.2 °F 30.06 in NE 2.0 mph 7.0 mph 86% 0.00 in
07:34 62.4 °F 58.2 °F 30.06 in NE 2.0 mph 10.0 mph 86% 0.00 in
07:39 62.6 °F 58.4 °F 30.06 in NE 4.0 mph 10.0 mph 86% 0.00 in
07:44 62.9 °F 58.6 °F 30.05 in NE 4.0 mph 7.0 mph 86% 0.00 in
07:49 63.1 °F 58.2 °F 30.05 in ENE 11.0 mph 11.0 mph 84% 0.00 in
07:54 63.0 °F 58.1 °F 30.06 in East 5.0 mph 11.0 mph 84% 0.00 in
07:59 63.3 °F 58.4 °F 30.06 in ENE 3.0 mph 8.0 mph 84% 0.00 in
08:04 63.8 °F 58.9 °F 30.06 in North 2.0 mph 8.0 mph 84% 0.00 in
08:09 64.2 °F 58.9 °F 30.06 in ENE 4.0 mph 9.0 mph 83% 0.00 in
08:14 64.9 °F 59.3 °F 30.06 in ENE 4.0 mph 9.0 mph 82% 0.00 in
08:19 65.4 °F 59.8 °F 30.06 in NE 3.0 mph 8.0 mph 82% 0.00 in
08:24 65.6 °F 59.6 °F 30.06 in NE 4.0 mph 9.0 mph 81% 0.00 in
08:29 66.1 °F 59.4 °F 30.07 in NE 5.0 mph 10.0 mph 79% 0.00 in
08:34 66.7 °F 60.0 °F 30.06 in ENE 5.0 mph 10.0 mph 79% 0.00 in
08:39 67.0 °F 59.9 °F 30.06 in NE 1.0 mph 11.0 mph 78% 0.00 in
08:44 67.2 °F 60.1 °F 30.07 in ENE 8.0 mph 11.0 mph 78% 0.00 in
08:49 67.0 °F 59.2 °F 30.07 in ENE 7.0 mph 13.0 mph 76% 0.00 in
08:54 67.0 °F 59.2 °F 30.07 in ENE 8.0 mph 11.0 mph 76% 0.00 in
08:59 67.3 °F 59.1 °F 30.07 in East 7.0 mph 10.0 mph 75% 0.00 in
09:04 68.1 °F 59.5 °F 30.07 in ESE 9.0 mph 12.0 mph 74% 0.00 in
09:09 68.5 °F 59.1 °F 30.07 in NE 2.0 mph 12.0 mph 72% 0.00 in
09:14 69.0 °F 59.2 °F 30.07 in NE 5.0 mph 12.0 mph 71% 0.00 in
09:19 69.0 °F 58.8 °F 30.07 in NE 5.0 mph 10.0 mph 70% 0.00 in
09:24 69.2 °F 59.0 °F 30.07 in NE 5.0 mph 10.0 mph 70% 0.00 in
09:29 69.2 °F 58.2 °F 30.08 in NE 5.0 mph 10.0 mph 68% 0.00 in
09:34 69.2 °F 57.4 °F 30.08 in NE 4.0 mph 12.0 mph 66% 0.00 in
09:39 69.2 °F 56.9 °F 30.08 in NNE 3.0 mph 13.0 mph 65% 0.00 in
09:44 69.7 °F 57.4 °F 30.08 in NE 5.0 mph 13.0 mph 65% 0.00 in
09:49 69.8 °F 57.1 °F 30.07 in NE 6.0 mph 11.0 mph 64% 0.00 in
09:54 69.8 °F 57.1 °F 30.07 in NE 6.0 mph 13.0 mph 64% 0.00 in
09:59 70.0 °F 56.8 °F 30.08 in ESE 5.0 mph 12.0 mph 63% 0.00 in
10:04 70.6 °F 58.3 °F 30.08 in NE 3.0 mph 8.0 mph 65% 0.00 in
10:09 70.5 °F 56.9 °F 30.07 in NE 5.0 mph 15.0 mph 62% 0.00 in
10:14 70.6 °F 56.9 °F 30.07 in NE 6.0 mph 15.0 mph 62% 0.00 in
10:19 71.4 °F 57.7 °F 30.07 in ENE 5.0 mph 9.0 mph 62% 0.00 in
10:24 71.7 °F 57.1 °F 30.07 in NE 5.0 mph 12.0 mph 60% 0.00 in
10:29 71.6 °F 55.6 °F 30.07 in NE 6.0 mph 12.0 mph 57% 0.00 in
10:34 71.9 °F 56.3 °F 30.06 in NE 5.0 mph 10.0 mph 58% 0.00 in
10:39 72.5 °F 55.9 °F 30.06 in NNE 11.0 mph 14.0 mph 56% 0.00 in
10:44 72.5 °F 56.4 °F 30.06 in East 6.0 mph 11.0 mph 57% 0.00 in
10:49 73.0 °F 56.4 °F 30.06 in NE 6.0 mph 11.0 mph 56% 0.00 in
10:54 73.1 °F 56.5 °F 30.06 in NE 5.0 mph 10.0 mph 56% 0.00 in
10:59 73.5 °F 56.3 °F 30.06 in NNE 5.0 mph 10.0 mph 55% 0.00 in
11:04 74.3 °F 57.6 °F 30.06 in SSE 2.0 mph 12.0 mph 56% 0.00 in
11:09 74.3 °F 55.0 °F 30.05 in ENE 8.0 mph 12.0 mph 51% 0.00 in
11:14 74.0 °F 55.3 °F 30.05 in NE 5.0 mph 11.0 mph 52% 0.00 in
11:19 74.5 °F 57.3 °F 30.05 in ENE 3.0 mph 10.0 mph 55% 0.00 in
11:24 74.6 °F 56.9 °F 30.05 in ENE 6.0 mph 12.0 mph 54% 0.00 in
11:29 75.1 °F 56.3 °F 30.05 in ENE 4.0 mph 13.0 mph 52% 0.00 in
11:34 74.8 °F 57.0 °F 30.05 in NE 5.0 mph 13.0 mph 54% 0.00 in
11:39 75.7 °F 57.9 °F 30.05 in NE 3.0 mph 10.0 mph 54% 0.00 in
11:44 76.2 °F 56.7 °F 30.05 in ENE 5.0 mph 8.0 mph 51% 0.00 in
11:49 76.0 °F 56.0 °F 30.06 in ENE 5.0 mph 13.0 mph 50% 0.00 in
11:54 75.8 °F 54.7 °F 30.06 in ENE 6.0 mph 14.0 mph 48% 0.00 in
11:59 76.1 °F 56.1 °F 30.05 in ENE 5.0 mph 14.0 mph 50% 0.00 in
12:04 76.4 °F 55.3 °F 30.05 in SE 2.0 mph 10.0 mph 48% 0.00 in
12:09 76.7 °F 56.7 °F 30.05 in East 3.0 mph 8.0 mph 50% 0.00 in
12:14 77.1 °F 55.9 °F 30.05 in NE 4.0 mph 14.0 mph 48% 0.00 in
12:19 76.7 °F 54.4 °F 30.05 in ENE 6.0 mph 16.0 mph 46% 0.00 in
12:24 76.9 °F 56.3 °F 30.05 in Calm   8.0 mph 49% 0.00 in
12:29 76.8 °F 56.8 °F 30.05 in ENE 3.0 mph 10.0 mph 50% 0.00 in
12:34 77.2 °F 56.6 °F 30.04 in NE 3.0 mph 14.0 mph 49% 0.00 in
12:39 77.2 °F 55.4 °F 30.04 in NE 4.0 mph 11.0 mph 47% 0.00 in
12:44 77.3 °F 55.5 °F 30.04 in ENE 6.0 mph 11.0 mph 47% 0.00 in
12:49 78.1 °F 55.0 °F 30.03 in ENE 5.0 mph 11.0 mph 45% 0.00 in
12:54 78.3 °F 55.8 °F 30.03 in ENE 5.0 mph 10.0 mph 46% 0.00 in
12:59 78.4 °F 55.9 °F 30.03 in ENE 6.0 mph 11.0 mph 46% 0.00 in
13:04 77.8 °F 56.0 °F 30.03 in ENE 5.0 mph 11.0 mph 47% 0.00 in
13:09 78.0 °F 56.1 °F 30.03 in Calm   14.0 mph 47% 0.00 in
13:14 78.8 °F 55.0 °F 30.03 in ENE 6.0 mph 14.0 mph 44% 0.00 in
13:19 78.4 °F 55.3 °F 30.03 in ENE 6.0 mph 14.0 mph 45% 0.00 in
13:24 78.9 °F 56.4 °F 30.03 in East 2.0 mph 9.0 mph 46% 0.00 in
13:29 79.5 °F 55.0 °F 30.03 in NE 4.0 mph 7.0 mph 43% 0.00 in
13:34 79.1 °F 55.3 °F 30.03 in NNE 5.0 mph 11.0 mph 44% 0.00 in
13:39 78.6 °F 56.7 °F 30.03 in NE 4.0 mph 12.0 mph 47% 0.00 in
13:44 79.0 °F 57.6 °F 30.03 in NE 4.0 mph 12.0 mph 48% 0.00 in
13:49 78.9 °F 53.9 °F 30.03 in NE 5.0 mph 13.0 mph 42% 0.00 in
13:54 79.2 °F 56.0 °F 30.02 in NE 4.0 mph 13.0 mph 45% 0.00 in
13:59 79.6 °F 55.1 °F 30.02 in NE 3.0 mph 9.0 mph 43% 0.00 in
14:04 79.5 °F 54.4 °F 30.02 in NE 11.0 mph 11.0 mph 42% 0.00 in
14:09 79.4 °F 55.6 °F 30.02 in NE 6.0 mph 14.0 mph 44% 0.00 in
14:14 79.6 °F 55.8 °F 30.02 in ENE 6.0 mph 14.0 mph 44% 0.00 in
14:19 79.4 °F 56.8 °F 30.02 in North 4.0 mph 14.0 mph 46% 0.00 in
14:24 79.7 °F 56.5 °F 30.02 in NE 4.0 mph 14.0 mph 45% 0.00 in
14:29 80.1 °F 54.3 °F 30.02 in NE 4.0 mph 13.0 mph 41% 0.00 in
14:34 79.8 °F 54.0 °F 30.02 in NNE 3.0 mph 11.0 mph 41% 0.00 in
14:39 79.9 °F 52.7 °F 30.02 in NE 5.0 mph 12.0 mph 39% 0.00 in
14:44 79.9 °F 56.0 °F 30.02 in NE 5.0 mph 12.0 mph 44% 0.00 in
14:49 80.7 °F 56.8 °F 30.02 in NE 4.0 mph 10.0 mph 44% 0.00 in
14:54 80.9 °F 54.3 °F 30.02 in ENE 4.0 mph 10.0 mph 40% 0.00 in
14:59 80.3 °F 55.1 °F 30.02 in NNE 2.0 mph 9.0 mph 42% 0.00 in
15:04 80.4 °F 54.5 °F 30.02 in SE 4.0 mph 10.0 mph 41% 0.00 in
15:09 80.5 °F 56.6 °F 30.02 in NE 4.0 mph 13.0 mph 44% 0.00 in
15:14 80.4 °F 55.2 °F 30.02 in ENE 5.0 mph 13.0 mph 42% 0.00 in
15:19 80.9 °F 54.3 °F 30.01 in SE 3.0 mph 12.0 mph 40% 0.00 in
15:24 81.0 °F 56.4 °F 30.02 in East 3.0 mph 10.0 mph 43% 0.00 in
15:29 80.9 °F 52.9 °F 30.02 in SE 1.0 mph 10.0 mph 38% 0.00 in
15:34 80.3 °F 53.1 °F 30.02 in NNE 8.0 mph 14.0 mph 39% 0.00 in
15:39 80.2 °F 53.0 °F 30.02 in NE 5.0 mph 14.0 mph 39% 0.00 in
15:44 80.2 °F 55.0 °F 30.01 in NE 5.0 mph 12.0 mph 42% 0.00 in
15:49 80.6 °F 52.6 °F 30.02 in NE 5.0 mph 9.0 mph 38% 0.00 in
15:54 80.5 °F 53.3 °F 30.01 in NE 5.0 mph 12.0 mph 39% 0.00 in
15:59 80.4 °F 55.9 °F 30.01 in North 2.0 mph 12.0 mph 43% 0.00 in
16:04 80.4 °F 52.5 °F 30.01 in NE 8.0 mph 11.0 mph 38% 0.00 in
16:09 80.8 °F 53.5 °F 30.01 in ENE 5.0 mph 11.0 mph 39% 0.00 in
16:14 81.2 °F 52.4 °F 30.01 in ENE 5.0 mph 11.0 mph 37% 0.00 in
16:19 81.1 °F 53.1 °F 30.00 in SE 2.0 mph 8.0 mph 38% 0.00 in
16:24 80.9 °F 53.6 °F 30.00 in NE 6.0 mph 10.0 mph 39% 0.00 in
16:29 80.7 °F 52.0 °F 30.00 in ENE 7.0 mph 10.0 mph 37% 0.00 in
16:34 80.5 °F 54.6 °F 30.00 in NNE 5.0 mph 14.0 mph 41% 0.00 in
16:39 80.3 °F 55.1 °F 30.00 in NE 6.0 mph 14.0 mph 42% 0.00 in
16:44 80.3 °F 55.8 °F 30.00 in NE 5.0 mph 11.0 mph 43% 0.00 in
16:49 79.6 °F 56.4 °F 30.00 in NE 4.0 mph 11.0 mph 45% 0.00 in
16:54 79.5 °F 55.7 °F 30.00 in NNE 4.0 mph 10.0 mph 44% 0.00 in
16:59 79.7 °F 56.5 °F 30.00 in North 4.0 mph 9.0 mph 45% 0.00 in
17:04 79.7 °F 56.5 °F 29.99 in ENE 9.0 mph 10.0 mph 45% 0.00 in
17:09 79.9 °F 54.8 °F 29.99 in NE 5.0 mph 11.0 mph 42% 0.00 in
17:14 80.1 °F 56.2 °F 29.99 in NE 5.0 mph 11.0 mph 44% 0.00 in
17:19 80.0 °F 55.5 °F 29.99 in NE 5.0 mph 11.0 mph 43% 0.00 in
17:24 79.6 °F 54.5 °F 29.99 in NE 6.0 mph 12.0 mph 42% 0.00 in
17:29 79.8 °F 55.9 °F 29.99 in NE 8.0 mph 11.0 mph 44% 0.00 in
17:34 79.3 °F 54.9 °F 29.98 in NE 2.0 mph 13.0 mph 43% 0.00 in
17:39 79.1 °F 54.7 °F 29.98 in NE 6.0 mph 13.0 mph 43% 0.00 in
17:44 78.7 °F 55.0 °F 29.98 in NE 4.0 mph 13.0 mph 44% 0.00 in
17:49 78.4 °F 54.7 °F 29.98 in NNE 3.0 mph 16.0 mph 44% 0.00 in
17:54 78.4 °F 54.0 °F 29.98 in ENE 9.0 mph 11.0 mph 43% 0.00 in
17:59 77.9 °F 54.2 °F 29.98 in ENE 9.0 mph 13.0 mph 44% 0.00 in
18:04 77.9 °F 53.0 °F 29.98 in NE 13.0 mph 15.0 mph 42% 0.00 in
18:09 77.8 °F 52.9 °F 29.98 in NE 7.0 mph 15.0 mph 42% 0.00 in
18:14 77.4 °F 52.5 °F 29.97 in ENE 8.0 mph 14.0 mph 42% 0.00 in
18:19 77.0 °F 52.1 °F 29.97 in NE 3.0 mph 17.0 mph 42% 0.00 in
18:24 77.1 °F 51.6 °F 29.97 in NE 13.0 mph 14.0 mph 41% 0.00 in
18:29 76.7 °F 51.2 °F 29.97 in East 13.0 mph 17.0 mph 41% 0.00 in
18:34 76.6 °F 51.1 °F 29.97 in NE 8.0 mph 17.0 mph 41% 0.00 in
18:39 76.4 °F 50.3 °F 29.97 in NE 8.0 mph 18.0 mph 40% 0.00 in
18:44 76.1 °F 50.7 °F 29.97 in NE 7.0 mph 18.0 mph 41% 0.00 in
18:49 76.0 °F 49.9 °F 29.97 in NE 8.0 mph 16.0 mph 40% 0.00 in
18:54 75.7 °F 49.7 °F 29.97 in ENE 10.0 mph 19.0 mph 40% 0.00 in
18:59 75.4 °F 49.4 °F 29.97 in ENE 10.0 mph 19.0 mph 40% 0.00 in
19:04 75.2 °F 49.2 °F 29.97 in ENE 9.0 mph 17.0 mph 40% 0.00 in
19:09 74.8 °F 48.9 °F 29.97 in NE 10.0 mph 18.0 mph 40% 0.00 in
19:14 74.7 °F 48.8 °F 29.97 in ENE 8.0 mph 15.0 mph 40% 0.00 in
19:19 74.5 °F 48.6 °F 29.97 in ENE 4.0 mph 16.0 mph 40% 0.00 in
19:24 74.5 °F 48.6 °F 29.97 in NE 7.0 mph 13.0 mph 40% 0.00 in
19:29 74.2 °F 48.3 °F 29.97 in NE 11.0 mph 16.0 mph 40% 0.00 in
19:34 73.9 °F 48.7 °F 29.97 in ENE 7.0 mph 16.0 mph 41% 0.00 in
19:39 73.7 °F 48.5 °F 29.97 in ENE 7.0 mph 15.0 mph 41% 0.00 in
19:44 73.5 °F 47.0 °F 29.97 in ENE 7.0 mph 18.0 mph 39% 0.00 in
19:49 73.2 °F 46.8 °F 29.97 in ENE 6.0 mph 18.0 mph 39% 0.00 in
19:54 72.9 °F 46.5 °F 29.97 in ENE 7.0 mph 15.0 mph 39% 0.00 in
19:59 72.5 °F 46.1 °F 29.97 in NE 6.0 mph 16.0 mph 39% 0.00 in
20:04 72.1 °F 46.4 °F 29.97 in ENE 9.0 mph 15.0 mph 40% 0.00 in
20:09 71.9 °F 46.3 °F 29.97 in NNE 10.0 mph 14.0 mph 40% 0.00 in
20:14 71.6 °F 46.0 °F 29.96 in NNE 8.0 mph 13.0 mph 40% 0.00 in
20:19 71.3 °F 46.4 °F 29.96 in NE 6.0 mph 11.0 mph 41% 0.00 in
20:24 71.1 °F 45.5 °F 29.97 in East 7.0 mph 10.0 mph 40% 0.00 in
20:29 70.8 °F 44.6 °F 29.97 in ENE 6.0 mph 10.0 mph 39% 0.00 in
20:34 70.5 °F 44.3 °F 29.97 in ENE 5.0 mph 12.0 mph 39% 0.00 in
20:39 70.2 °F 44.1 °F 29.97 in ENE 5.0 mph 12.0 mph 39% 0.00 in
20:44 69.9 °F 44.5 °F 29.97 in East 6.0 mph 10.0 mph 40% 0.00 in
20:49 69.6 °F 43.5 °F 29.98 in ENE 4.0 mph 10.0 mph 39% 0.00 in
20:54 69.4 °F 43.4 °F 29.98 in East 7.0 mph 11.0 mph 39% 0.00 in
20:59 69.1 °F 43.1 °F 29.98 in ENE 5.0 mph 13.0 mph 39% 0.00 in
21:04 69.0 °F 42.3 °F 29.98 in ENE 5.0 mph 13.0 mph 38% 0.00 in
21:09 68.8 °F 42.1 °F 29.98 in ENE 5.0 mph 11.0 mph 38% 0.00 in
21:14 68.6 °F 42.0 °F 29.98 in ENE 4.0 mph 10.0 mph 38% 0.00 in
21:19 68.4 °F 41.8 °F 29.98 in ESE 4.0 mph 11.0 mph 38% 0.00 in
21:24 68.2 °F 42.3 °F 29.98 in East 6.0 mph 9.0 mph 39% 0.00 in
21:29 68.0 °F 41.4 °F 29.98 in ENE 5.0 mph 9.0 mph 38% 0.00 in
21:34 67.8 °F 41.9 °F 29.97 in ENE 5.0 mph 9.0 mph 39% 0.00 in
21:39 67.6 °F 41.1 °F 29.98 in ENE 4.0 mph 9.0 mph 38% 0.00 in
21:44 67.4 °F 40.9 °F 29.98 in NE 4.0 mph 10.0 mph 38% 0.00 in
21:49 67.2 °F 40.7 °F 29.98 in ENE 2.0 mph 8.0 mph 38% 0.00 in
21:54 67.0 °F 39.9 °F 29.98 in East 3.0 mph 8.0 mph 37% 0.00 in
21:59 66.7 °F 40.3 °F 29.99 in ENE 4.0 mph 8.0 mph 38% 0.00 in
22:04 66.5 °F 40.1 °F 29.99 in ENE 3.0 mph 10.0 mph 38% 0.00 in
22:09 66.5 °F 40.1 °F 29.99 in ENE 4.0 mph 10.0 mph 38% 0.00 in
22:14 66.2 °F 39.1 °F 29.99 in ENE 3.0 mph 10.0 mph 37% 0.00 in
22:19 66.1 °F 39.1 °F 29.99 in ENE 3.0 mph 8.0 mph 37% 0.00 in
22:24 66.0 °F 39.7 °F 29.99 in ENE 4.0 mph 9.0 mph 38% 0.00 in
22:29 65.8 °F 39.5 °F 29.99 in ENE 4.0 mph 10.0 mph 38% 0.00 in
22:34 65.6 °F 39.3 °F 29.99 in NE 2.0 mph 10.0 mph 38% 0.00 in
22:39 65.4 °F 39.1 °F 29.99 in ENE 3.0 mph 8.0 mph 38% 0.00 in
22:44 65.3 °F 39.7 °F 30.00 in ENE 3.0 mph 7.0 mph 39% 0.00 in
22:49 65.1 °F 39.5 °F 30.00 in East 6.0 mph 7.0 mph 39% 0.00 in
22:54 64.9 °F 39.3 °F 30.00 in ENE 4.0 mph 9.0 mph 39% 0.00 in
22:59 64.7 °F 39.2 °F 30.00 in ENE 3.0 mph 9.0 mph 39% 0.00 in
23:04 64.6 °F 39.7 °F 30.00 in ENE 3.0 mph 8.0 mph 40% 0.00 in
23:09 64.5 °F 39.6 °F 30.00 in ENE 3.0 mph 7.0 mph 40% 0.00 in
23:14 64.2 °F 39.4 °F 29.99 in ENE 3.0 mph 7.0 mph 40% 0.00 in
23:19 64.2 °F 39.4 °F 30.00 in ENE 3.0 mph 7.0 mph 40% 0.00 in
23:24 64.1 °F 39.3 °F 29.99 in ENE 1.0 mph 4.0 mph 40% 0.00 in
23:29 63.9 °F 39.7 °F 29.99 in ENE 2.0 mph 5.0 mph 41% 0.00 in
23:34 63.7 °F 38.9 °F 29.99 in NE 2.0 mph 5.0 mph 40% 0.00 in
23:39 63.7 °F 39.5 °F 29.99 in East 3.0 mph 6.0 mph 41% 0.00 in
23:44 63.6 °F 39.5 °F 29.98 in ENE 2.0 mph 7.0 mph 41% 0.00 in
23:49 63.5 °F 38.7 °F 29.98 in ENE 4.0 mph 5.0 mph 40% 0.00 in
23:54 63.4 °F 39.3 °F 29.98 in ENE 2.0 mph 5.0 mph 41% 0.00 in
23:59 63.2 °F 39.1 °F 29.98 in ENE 2.0 mph 5.0 mph 41% 0.00 in
Buffalo, New York, USA
Compliments of Weather Underground - 2.5 mb